sensor_id;sensor_type;location;lat;lon;timestamp;P1;durP1;ratioP1;P2;durP2;ratioP2
8704;SDS011;4389;41.932;25.904;2022-08-21T00:02:21;6.68;;;5.88;;
8704;SDS011;4389;41.932;25.904;2022-08-21T00:04:50;10.48;;;5.93;;
8704;SDS011;4389;41.932;25.904;2022-08-21T00:07:18;9.85;;;5.43;;
8704;SDS011;4389;41.932;25.904;2022-08-21T00:09:47;7.13;;;5.43;;
8704;SDS011;4389;41.932;25.904;2022-08-21T00:12:14;6.72;;;5.93;;
8704;SDS011;4389;41.932;25.904;2022-08-21T00:14:41;5.75;;;5.13;;
8704;SDS011;4389;41.932;25.904;2022-08-21T00:17:08;8.63;;;4.82;;
8704;SDS011;4389;41.932;25.904;2022-08-21T00:19:35;8.52;;;5.03;;
8704;SDS011;4389;41.932;25.904;2022-08-21T00:22:02;8.27;;;5.25;;
8704;SDS011;4389;41.932;25.904;2022-08-21T00:24:29;7.43;;;5.53;;
8704;SDS011;4389;41.932;25.904;2022-08-21T00:26:58;6.82;;;5.30;;
8704;SDS011;4389;41.932;25.904;2022-08-21T00:29:25;9.23;;;5.60;;
8704;SDS011;4389;41.932;25.904;2022-08-21T00:31:51;8.27;;;5.20;;
8704;SDS011;4389;41.932;25.904;2022-08-21T00:34:19;7.97;;;5.03;;
8704;SDS011;4389;41.932;25.904;2022-08-21T00:36:46;5.60;;;5.10;;
8704;SDS011;4389;41.932;25.904;2022-08-21T00:39:13;6.13;;;5.40;;
8704;SDS011;4389;41.932;25.904;2022-08-21T00:41:40;7.18;;;5.47;;
8704;SDS011;4389;41.932;25.904;2022-08-21T00:44:11;7.03;;;5.53;;
8704;SDS011;4389;41.932;25.904;2022-08-21T00:46:41;9.80;;;5.70;;
8704;SDS011;4389;41.932;25.904;2022-08-21T00:49:09;7.73;;;5.47;;
8704;SDS011;4389;41.932;25.904;2022-08-21T00:51:39;7.57;;;6.07;;
8704;SDS011;4389;41.932;25.904;2022-08-21T00:54:10;12.60;;;6.07;;
8704;SDS011;4389;41.932;25.904;2022-08-21T00:56:38;7.83;;;5.27;;
8704;SDS011;4389;41.932;25.904;2022-08-21T00:59:05;8.87;;;5.63;;
8704;SDS011;4389;41.932;25.904;2022-08-21T01:01:33;6.50;;;5.53;;
8704;SDS011;4389;41.932;25.904;2022-08-21T01:04:01;7.73;;;5.97;;
8704;SDS011;4389;41.932;25.904;2022-08-21T01:06:28;8.50;;;5.70;;
8704;SDS011;4389;41.932;25.904;2022-08-21T01:08:55;6.63;;;5.83;;
8704;SDS011;4389;41.932;25.904;2022-08-21T01:11:22;8.23;;;6.10;;
8704;SDS011;4389;41.932;25.904;2022-08-21T01:13:49;10.03;;;5.97;;
8704;SDS011;4389;41.932;25.904;2022-08-21T01:16:17;6.37;;;5.77;;
8704;SDS011;4389;41.932;25.904;2022-08-21T01:18:47;6.33;;;5.73;;
8704;SDS011;4389;41.932;25.904;2022-08-21T01:21:18;9.27;;;5.77;;
8704;SDS011;4389;41.932;25.904;2022-08-21T01:23:47;6.30;;;5.70;;
8704;SDS011;4389;41.932;25.904;2022-08-21T01:26:16;7.50;;;6.20;;
8704;SDS011;4389;41.932;25.904;2022-08-21T01:28:46;6.90;;;5.90;;
8704;SDS011;4389;41.932;25.904;2022-08-21T01:31:19;7.37;;;5.90;;
8704;SDS011;4389;41.932;25.904;2022-08-21T01:33:49;6.60;;;6.00;;
8704;SDS011;4389;41.932;25.904;2022-08-21T01:36:17;6.97;;;5.67;;
8704;SDS011;4389;41.932;25.904;2022-08-21T01:38:44;9.83;;;5.60;;
8704;SDS011;4389;41.932;25.904;2022-08-21T01:41:12;6.60;;;5.80;;
8704;SDS011;4389;41.932;25.904;2022-08-21T01:43:39;6.63;;;5.90;;
8704;SDS011;4389;41.932;25.904;2022-08-21T01:46:07;10.03;;;6.23;;
8704;SDS011;4389;41.932;25.904;2022-08-21T01:48:34;7.63;;;6.20;;
8704;SDS011;4389;41.932;25.904;2022-08-21T01:51:02;6.40;;;5.77;;
8704;SDS011;4389;41.932;25.904;2022-08-21T01:53:30;6.33;;;5.83;;
8704;SDS011;4389;41.932;25.904;2022-08-21T01:55:59;6.70;;;6.00;;
8704;SDS011;4389;41.932;25.904;2022-08-21T01:58:26;6.57;;;5.97;;
8704;SDS011;4389;41.932;25.904;2022-08-21T02:00:53;8.63;;;6.33;;
8704;SDS011;4389;41.932;25.904;2022-08-21T02:03:20;7.60;;;6.90;;
8704;SDS011;4389;41.932;25.904;2022-08-21T02:05:47;11.63;;;6.73;;
8704;SDS011;4389;41.932;25.904;2022-08-21T02:08:13;7.90;;;5.97;;
8704;SDS011;4389;41.932;25.904;2022-08-21T02:10:41;8.83;;;6.67;;
8704;SDS011;4389;41.932;25.904;2022-08-21T02:13:08;10.87;;;6.53;;
8704;SDS011;4389;41.932;25.904;2022-08-21T02:15:35;8.23;;;6.40;;
8704;SDS011;4389;41.932;25.904;2022-08-21T02:18:02;11.60;;;6.60;;
8704;SDS011;4389;41.932;25.904;2022-08-21T02:20:32;10.33;;;9.33;;
8704;SDS011;4389;41.932;25.904;2022-08-21T02:23:01;8.90;;;7.43;;
8704;SDS011;4389;41.932;25.904;2022-08-21T02:25:29;7.93;;;6.40;;
8704;SDS011;4389;41.932;25.904;2022-08-21T02:27:58;8.43;;;7.63;;
8704;SDS011;4389;41.932;25.904;2022-08-21T02:30:28;10.70;;;7.63;;
8704;SDS011;4389;41.932;25.904;2022-08-21T02:32:56;6.83;;;6.20;;
8704;SDS011;4389;41.932;25.904;2022-08-21T02:35:24;6.67;;;6.00;;
8704;SDS011;4389;41.932;25.904;2022-08-21T02:37:52;9.50;;;6.83;;
8704;SDS011;4389;41.932;25.904;2022-08-21T02:40:27;9.73;;;6.20;;
8704;SDS011;4389;41.932;25.904;2022-08-21T02:42:59;10.57;;;6.87;;
8704;SDS011;4389;41.932;25.904;2022-08-21T02:45:27;7.73;;;6.60;;
8704;SDS011;4389;41.932;25.904;2022-08-21T02:47:55;11.47;;;6.77;;
8704;SDS011;4389;41.932;25.904;2022-08-21T02:50:24;11.60;;;6.30;;
8704;SDS011;4389;41.932;25.904;2022-08-21T02:52:53;9.40;;;6.23;;
8704;SDS011;4389;41.932;25.904;2022-08-21T02:55:21;6.57;;;5.97;;
8704;SDS011;4389;41.932;25.904;2022-08-21T02:57:49;6.50;;;5.90;;
8704;SDS011;4389;41.932;25.904;2022-08-21T03:00:17;7.57;;;6.47;;
8704;SDS011;4389;41.932;25.904;2022-08-21T03:02:45;9.27;;;6.97;;
8704;SDS011;4389;41.932;25.904;2022-08-21T03:05:13;8.43;;;6.53;;
8704;SDS011;4389;41.932;25.904;2022-08-21T03:07:42;6.97;;;6.30;;
8704;SDS011;4389;41.932;25.904;2022-08-21T03:10:09;8.03;;;6.20;;
8704;SDS011;4389;41.932;25.904;2022-08-21T03:12:37;7.97;;;7.13;;
8704;SDS011;4389;41.932;25.904;2022-08-21T03:15:04;9.13;;;7.47;;
8704;SDS011;4389;41.932;25.904;2022-08-21T03:17:33;8.17;;;7.37;;
8704;SDS011;4389;41.932;25.904;2022-08-21T03:20:00;11.40;;;6.67;;
8704;SDS011;4389;41.932;25.904;2022-08-21T03:22:28;14.60;;;6.57;;
8704;SDS011;4389;41.932;25.904;2022-08-21T03:24:54;8.47;;;7.13;;
8704;SDS011;4389;41.932;25.904;2022-08-21T03:27:22;7.07;;;6.10;;
8704;SDS011;4389;41.932;25.904;2022-08-21T03:29:51;10.03;;;6.70;;
8704;SDS011;4389;41.932;25.904;2022-08-21T03:32:18;8.70;;;6.43;;
8704;SDS011;4389;41.932;25.904;2022-08-21T03:34:47;9.90;;;6.33;;
8704;SDS011;4389;41.932;25.904;2022-08-21T03:37:14;11.90;;;6.50;;
8704;SDS011;4389;41.932;25.904;2022-08-21T03:39:42;7.87;;;5.93;;
8704;SDS011;4389;41.932;25.904;2022-08-21T03:42:10;12.47;;;6.93;;
8704;SDS011;4389;41.932;25.904;2022-08-21T03:44:37;11.30;;;5.73;;
8704;SDS011;4389;41.932;25.904;2022-08-21T03:47:04;11.23;;;5.77;;
8704;SDS011;4389;41.932;25.904;2022-08-21T03:49:32;13.87;;;5.70;;
8704;SDS011;4389;41.932;25.904;2022-08-21T03:52:01;17.13;;;5.50;;
8704;SDS011;4389;41.932;25.904;2022-08-21T03:54:28;14.70;;;7.37;;
8704;SDS011;4389;41.932;25.904;2022-08-21T03:56:56;12.43;;;5.73;;
8704;SDS011;4389;41.932;25.904;2022-08-21T03:59:23;9.67;;;5.30;;
8704;SDS011;4389;41.932;25.904;2022-08-21T04:01:51;13.80;;;5.20;;
8704;SDS011;4389;41.932;25.904;2022-08-21T04:04:19;14.37;;;5.53;;
8704;SDS011;4389;41.932;25.904;2022-08-21T04:06:46;12.63;;;5.63;;
8704;SDS011;4389;41.932;25.904;2022-08-21T04:09:14;9.13;;;5.40;;
8704;SDS011;4389;41.932;25.904;2022-08-21T04:11:41;7.57;;;5.07;;
8704;SDS011;4389;41.932;25.904;2022-08-21T04:14:08;9.17;;;5.83;;
8704;SDS011;4389;41.932;25.904;2022-08-21T04:16:35;14.83;;;5.60;;
8704;SDS011;4389;41.932;25.904;2022-08-21T04:19:02;13.23;;;5.93;;
8704;SDS011;4389;41.932;25.904;2022-08-21T04:21:29;9.87;;;5.60;;
8704;SDS011;4389;41.932;25.904;2022-08-21T04:23:56;11.13;;;5.50;;
8704;SDS011;4389;41.932;25.904;2022-08-21T04:26:25;13.73;;;6.50;;
8704;SDS011;4389;41.932;25.904;2022-08-21T04:28:52;11.87;;;6.30;;
8704;SDS011;4389;41.932;25.904;2022-08-21T04:31:21;10.60;;;5.73;;
8704;SDS011;4389;41.932;25.904;2022-08-21T04:33:48;17.90;;;7.30;;
8704;SDS011;4389;41.932;25.904;2022-08-21T04:36:15;8.87;;;6.40;;
8704;SDS011;4389;41.932;25.904;2022-08-21T04:38:42;12.30;;;5.63;;
8704;SDS011;4389;41.932;25.904;2022-08-21T04:41:10;13.70;;;5.87;;
8704;SDS011;4389;41.932;25.904;2022-08-21T04:43:38;13.73;;;6.45;;
8704;SDS011;4389;41.932;25.904;2022-08-21T04:46:05;10.13;;;6.77;;
8704;SDS011;4389;41.932;25.904;2022-08-21T04:48:32;12.87;;;7.33;;
8704;SDS011;4389;41.932;25.904;2022-08-21T04:51:00;16.60;;;7.50;;
8704;SDS011;4389;41.932;25.904;2022-08-21T04:53:32;16.83;;;7.13;;
8704;SDS011;4389;41.932;25.904;2022-08-21T04:56:04;13.13;;;6.67;;
8704;SDS011;4389;41.932;25.904;2022-08-21T04:58:34;13.37;;;7.00;;
8704;SDS011;4389;41.932;25.904;2022-08-21T05:01:06;17.50;;;7.10;;
8704;SDS011;4389;41.932;25.904;2022-08-21T05:03:34;15.20;;;6.00;;
8704;SDS011;4389;41.932;25.904;2022-08-21T05:06:03;13.67;;;6.57;;
8704;SDS011;4389;41.932;25.904;2022-08-21T05:08:31;11.27;;;6.23;;
8704;SDS011;4389;41.932;25.904;2022-08-21T05:11:00;17.70;;;6.50;;
8704;SDS011;4389;41.932;25.904;2022-08-21T05:13:29;18.23;;;5.97;;
8704;SDS011;4389;41.932;25.904;2022-08-21T05:15:57;15.03;;;6.33;;
8704;SDS011;4389;41.932;25.904;2022-08-21T05:18:25;15.13;;;5.63;;
8704;SDS011;4389;41.932;25.904;2022-08-21T05:20:52;16.90;;;6.23;;
8704;SDS011;4389;41.932;25.904;2022-08-21T05:23:19;15.70;;;6.07;;
8704;SDS011;4389;41.932;25.904;2022-08-21T05:25:46;16.20;;;5.80;;
8704;SDS011;4389;41.932;25.904;2022-08-21T05:28:13;17.70;;;5.90;;
8704;SDS011;4389;41.932;25.904;2022-08-21T05:30:40;19.27;;;6.43;;
8704;SDS011;4389;41.932;25.904;2022-08-21T05:33:07;7.80;;;5.50;;
8704;SDS011;4389;41.932;25.904;2022-08-21T05:35:35;20.47;;;6.03;;
8704;SDS011;4389;41.932;25.904;2022-08-21T05:38:04;12.47;;;5.83;;
8704;SDS011;4389;41.932;25.904;2022-08-21T05:40:31;10.13;;;5.67;;
8704;SDS011;4389;41.932;25.904;2022-08-21T05:42:59;11.80;;;6.13;;
8704;SDS011;4389;41.932;25.904;2022-08-21T05:45:27;11.40;;;5.37;;
8704;SDS011;4389;41.932;25.904;2022-08-21T05:47:55;7.20;;;5.47;;
8704;SDS011;4389;41.932;25.904;2022-08-21T05:50:22;13.40;;;5.70;;
8704;SDS011;4389;41.932;25.904;2022-08-21T05:52:51;8.87;;;5.00;;
8704;SDS011;4389;41.932;25.904;2022-08-21T05:55:18;11.33;;;5.73;;
8704;SDS011;4389;41.932;25.904;2022-08-21T05:57:45;10.70;;;4.90;;
8704;SDS011;4389;41.932;25.904;2022-08-21T06:00:12;10.90;;;5.28;;
8704;SDS011;4389;41.932;25.904;2022-08-21T06:02:40;10.57;;;5.53;;
8704;SDS011;4389;41.932;25.904;2022-08-21T06:05:07;7.38;;;4.28;;
8704;SDS011;4389;41.932;25.904;2022-08-21T06:07:34;6.45;;;4.65;;
8704;SDS011;4389;41.932;25.904;2022-08-21T06:10:02;9.35;;;5.20;;
8704;SDS011;4389;41.932;25.904;2022-08-21T06:12:29;8.05;;;5.22;;
8704;SDS011;4389;41.932;25.904;2022-08-21T06:14:56;8.95;;;4.45;;
8704;SDS011;4389;41.932;25.904;2022-08-21T06:17:23;14.98;;;5.10;;
8704;SDS011;4389;41.932;25.904;2022-08-21T06:19:51;11.40;;;5.20;;
8704;SDS011;4389;41.932;25.904;2022-08-21T06:22:18;15.93;;;5.05;;
8704;SDS011;4389;41.932;25.904;2022-08-21T06:24:46;13.02;;;5.05;;
8704;SDS011;4389;41.932;25.904;2022-08-21T06:27:14;13.52;;;4.93;;
8704;SDS011;4389;41.932;25.904;2022-08-21T06:29:43;9.27;;;5.35;;
8704;SDS011;4389;41.932;25.904;2022-08-21T06:32:12;9.80;;;5.72;;
8704;SDS011;4389;41.932;25.904;2022-08-21T06:34:40;7.78;;;4.82;;
8704;SDS011;4389;41.932;25.904;2022-08-21T06:37:07;10.38;;;5.03;;
8704;SDS011;4389;41.932;25.904;2022-08-21T06:39:34;10.68;;;4.78;;
8704;SDS011;4389;41.932;25.904;2022-08-21T06:42:02;11.63;;;4.70;;
8704;SDS011;4389;41.932;25.904;2022-08-21T06:44:31;10.00;;;4.90;;
8704;SDS011;4389;41.932;25.904;2022-08-21T06:46:58;10.43;;;5.20;;
8704;SDS011;4389;41.932;25.904;2022-08-21T06:49:24;8.00;;;4.80;;
8704;SDS011;4389;41.932;25.904;2022-08-21T06:51:51;8.93;;;5.18;;
8704;SDS011;4389;41.932;25.904;2022-08-21T06:54:19;9.70;;;5.47;;
8704;SDS011;4389;41.932;25.904;2022-08-21T06:56:45;8.52;;;4.88;;
8704;SDS011;4389;41.932;25.904;2022-08-21T06:59:12;8.18;;;4.63;;
8704;SDS011;4389;41.932;25.904;2022-08-21T07:01:41;11.95;;;5.43;;
8704;SDS011;4389;41.932;25.904;2022-08-21T07:04:08;14.70;;;5.53;;
8704;SDS011;4389;41.932;25.904;2022-08-21T07:06:35;10.75;;;5.07;;
8704;SDS011;4389;41.932;25.904;2022-08-21T07:09:02;13.63;;;6.03;;
8704;SDS011;4389;41.932;25.904;2022-08-21T07:11:29;10.80;;;4.88;;
8704;SDS011;4389;41.932;25.904;2022-08-21T07:13:56;6.97;;;4.47;;
8704;SDS011;4389;41.932;25.904;2022-08-21T07:16:23;12.05;;;5.78;;
8704;SDS011;4389;41.932;25.904;2022-08-21T07:18:52;11.68;;;5.43;;
8704;SDS011;4389;41.932;25.904;2022-08-21T07:21:19;13.68;;;5.70;;
8704;SDS011;4389;41.932;25.904;2022-08-21T07:23:47;10.98;;;5.55;;
8704;SDS011;4389;41.932;25.904;2022-08-21T07:26:20;10.27;;;5.30;;
8704;SDS011;4389;41.932;25.904;2022-08-21T07:28:47;12.38;;;5.40;;
8704;SDS011;4389;41.932;25.904;2022-08-21T07:31:16;9.95;;;4.88;;
8704;SDS011;4389;41.932;25.904;2022-08-21T07:33:44;9.90;;;5.18;;
8704;SDS011;4389;41.932;25.904;2022-08-21T07:36:12;13.25;;;5.72;;
8704;SDS011;4389;41.932;25.904;2022-08-21T07:38:40;12.23;;;5.18;;
8704;SDS011;4389;41.932;25.904;2022-08-21T07:41:10;11.23;;;5.65;;
8704;SDS011;4389;41.932;25.904;2022-08-21T07:43:41;10.60;;;5.55;;
8704;SDS011;4389;41.932;25.904;2022-08-21T07:46:08;10.80;;;5.90;;
8704;SDS011;4389;41.932;25.904;2022-08-21T07:48:36;9.63;;;6.20;;
8704;SDS011;4389;41.932;25.904;2022-08-21T07:51:04;10.30;;;5.82;;
8704;SDS011;4389;41.932;25.904;2022-08-21T07:53:36;16.95;;;6.53;;
8704;SDS011;4389;41.932;25.904;2022-08-21T07:56:06;9.82;;;6.15;;
8704;SDS011;4389;41.932;25.904;2022-08-21T07:58:36;8.83;;;5.87;;
8704;SDS011;4389;41.932;25.904;2022-08-21T08:01:02;15.23;;;6.25;;
8704;SDS011;4389;41.932;25.904;2022-08-21T08:03:30;13.88;;;6.28;;
8704;SDS011;4389;41.932;25.904;2022-08-21T08:05:57;11.53;;;5.87;;
8704;SDS011;4389;41.932;25.904;2022-08-21T08:08:24;13.40;;;6.07;;
8704;SDS011;4389;41.932;25.904;2022-08-21T08:10:53;12.82;;;5.63;;
8704;SDS011;4389;41.932;25.904;2022-08-21T08:13:22;9.03;;;6.20;;
8704;SDS011;4389;41.932;25.904;2022-08-21T08:15:49;9.60;;;6.00;;
8704;SDS011;4389;41.932;25.904;2022-08-21T08:18:16;10.75;;;5.70;;
8704;SDS011;4389;41.932;25.904;2022-08-21T08:20:43;12.35;;;6.40;;
8704;SDS011;4389;41.932;25.904;2022-08-21T08:23:10;9.30;;;5.68;;
8704;SDS011;4389;41.932;25.904;2022-08-21T08:25:37;10.18;;;6.07;;
8704;SDS011;4389;41.932;25.904;2022-08-21T08:28:06;11.38;;;6.28;;
8704;SDS011;4389;41.932;25.904;2022-08-21T08:30:33;14.50;;;5.60;;
8704;SDS011;4389;41.932;25.904;2022-08-21T08:33:00;26.95;;;6.68;;
8704;SDS011;4389;41.932;25.904;2022-08-21T08:35:27;9.95;;;6.50;;
8704;SDS011;4389;41.932;25.904;2022-08-21T08:37:54;9.73;;;5.55;;
8704;SDS011;4389;41.932;25.904;2022-08-21T08:40:22;11.77;;;6.22;;
8704;SDS011;4389;41.932;25.904;2022-08-21T08:42:58;18.77;;;6.03;;
8704;SDS011;4389;41.932;25.904;2022-08-21T08:45:27;11.35;;;6.60;;
8704;SDS011;4389;41.932;25.904;2022-08-21T08:47:58;11.57;;;7.03;;
8704;SDS011;4389;41.932;25.904;2022-08-21T08:50:33;10.40;;;6.70;;
8704;SDS011;4389;41.932;25.904;2022-08-21T08:53:07;13.05;;;7.28;;
8704;SDS011;4389;41.932;25.904;2022-08-21T08:55:39;11.10;;;7.10;;
8704;SDS011;4389;41.932;25.904;2022-08-21T08:58:09;11.80;;;6.63;;
8704;SDS011;4389;41.932;25.904;2022-08-21T09:00:44;12.85;;;6.68;;
8704;SDS011;4389;41.932;25.904;2022-08-21T09:03:15;13.80;;;7.75;;
8704;SDS011;4389;41.932;25.904;2022-08-21T09:05:44;10.35;;;7.43;;
8704;SDS011;4389;41.932;25.904;2022-08-21T09:08:17;12.43;;;7.93;;
8704;SDS011;4389;41.932;25.904;2022-08-21T09:10:56;13.65;;;8.00;;
8704;SDS011;4389;41.932;25.904;2022-08-21T09:13:29;13.68;;;8.00;;
8704;SDS011;4389;41.932;25.904;2022-08-21T09:16:05;10.98;;;7.70;;
8704;SDS011;4389;41.932;25.904;2022-08-21T09:18:43;14.27;;;7.72;;
8704;SDS011;4389;41.932;25.904;2022-08-21T09:21:19;12.65;;;7.38;;
8704;SDS011;4389;41.932;25.904;2022-08-21T09:23:53;11.25;;;7.00;;
8704;SDS011;4389;41.932;25.904;2022-08-21T09:26:29;10.82;;;6.75;;
8704;SDS011;4389;41.932;25.904;2022-08-21T09:29:02;14.35;;;7.03;;
8704;SDS011;4389;41.932;25.904;2022-08-21T09:31:33;10.43;;;6.70;;
8704;SDS011;4389;41.932;25.904;2022-08-21T09:34:04;16.88;;;6.72;;
8704;SDS011;4389;41.932;25.904;2022-08-21T09:36:35;13.70;;;7.80;;
8704;SDS011;4389;41.932;25.904;2022-08-21T09:39:06;14.63;;;7.18;;
8704;SDS011;4389;41.932;25.904;2022-08-21T09:41:34;12.40;;;7.03;;
8704;SDS011;4389;41.932;25.904;2022-08-21T09:44:02;9.82;;;6.70;;
8704;SDS011;4389;41.932;25.904;2022-08-21T09:46:30;13.25;;;7.15;;
8704;SDS011;4389;41.932;25.904;2022-08-21T09:48:59;9.48;;;6.82;;
8704;SDS011;4389;41.932;25.904;2022-08-21T09:51:30;9.52;;;6.88;;
8704;SDS011;4389;41.932;25.904;2022-08-21T09:54:08;13.07;;;6.68;;
8704;SDS011;4389;41.932;25.904;2022-08-21T09:56:51;9.35;;;6.43;;
8704;SDS011;4389;41.932;25.904;2022-08-21T09:59:38;12.48;;;6.63;;
8704;SDS011;4389;41.932;25.904;2022-08-21T10:02:18;9.82;;;7.07;;
8704;SDS011;4389;41.932;25.904;2022-08-21T10:04:53;8.38;;;7.10;;
8704;SDS011;4389;41.932;25.904;2022-08-21T10:07:26;9.75;;;7.88;;
8704;SDS011;4389;41.932;25.904;2022-08-21T10:09:58;8.70;;;7.47;;
8704;SDS011;4389;41.932;25.904;2022-08-21T10:12:29;14.00;;;7.13;;
8704;SDS011;4389;41.932;25.904;2022-08-21T10:15:05;10.32;;;7.53;;
8704;SDS011;4389;41.932;25.904;2022-08-21T10:17:42;10.35;;;7.15;;
8704;SDS011;4389;41.932;25.904;2022-08-21T10:20:20;10.48;;;6.85;;
8704;SDS011;4389;41.932;25.904;2022-08-21T10:22:52;12.23;;;6.90;;
8704;SDS011;4389;41.932;25.904;2022-08-21T10:25:31;10.40;;;5.85;;
8704;SDS011;4389;41.932;25.904;2022-08-21T10:28:04;13.00;;;6.28;;
8704;SDS011;4389;41.932;25.904;2022-08-21T10:30:37;9.45;;;6.15;;
8704;SDS011;4389;41.932;25.904;2022-08-21T10:33:17;10.63;;;6.03;;
8704;SDS011;4389;41.932;25.904;2022-08-21T10:35:56;11.05;;;6.45;;
8704;SDS011;4389;41.932;25.904;2022-08-21T10:41:21;9.98;;;6.95;;
8704;SDS011;4389;41.932;25.904;2022-08-21T10:43:57;9.18;;;7.10;;
8704;SDS011;4389;41.932;25.904;2022-08-21T10:46:37;11.02;;;7.38;;
8704;SDS011;4389;41.932;25.904;2022-08-21T10:49:14;12.38;;;6.82;;
8704;SDS011;4389;41.932;25.904;2022-08-21T10:51:53;11.38;;;7.40;;
8704;SDS011;4389;41.932;25.904;2022-08-21T10:54:41;12.95;;;6.85;;
8704;SDS011;4389;41.932;25.904;2022-08-21T10:57:19;11.07;;;6.38;;
8704;SDS011;4389;41.932;25.904;2022-08-21T10:59:55;10.40;;;6.75;;
8704;SDS011;4389;41.932;25.904;2022-08-21T11:02:27;7.65;;;5.95;;
8704;SDS011;4389;41.932;25.904;2022-08-21T11:04:59;12.98;;;6.93;;
8704;SDS011;4389;41.932;25.904;2022-08-21T11:07:32;10.65;;;7.07;;
8704;SDS011;4389;41.932;25.904;2022-08-21T11:10:05;8.52;;;6.57;;
8704;SDS011;4389;41.932;25.904;2022-08-21T11:12:39;8.60;;;6.97;;
8704;SDS011;4389;41.932;25.904;2022-08-21T11:15:14;15.68;;;7.65;;
8704;SDS011;4389;41.932;25.904;2022-08-21T11:17:52;9.23;;;6.40;;
8704;SDS011;4389;41.932;25.904;2022-08-21T11:20:27;10.98;;;7.00;;
8704;SDS011;4389;41.932;25.904;2022-08-21T11:23:03;9.65;;;7.00;;
8704;SDS011;4389;41.932;25.904;2022-08-21T11:25:36;11.57;;;7.88;;
8704;SDS011;4389;41.932;25.904;2022-08-21T11:28:06;12.85;;;7.28;;
8704;SDS011;4389;41.932;25.904;2022-08-21T11:30:44;11.50;;;6.95;;
8704;SDS011;4389;41.932;25.904;2022-08-21T11:33:25;8.52;;;7.30;;
8704;SDS011;4389;41.932;25.904;2022-08-21T11:36:09;8.63;;;7.78;;
8704;SDS011;4389;41.932;25.904;2022-08-21T11:38:46;7.63;;;6.18;;
8704;SDS011;4389;41.932;25.904;2022-08-21T11:41:22;9.05;;;6.90;;
8704;SDS011;4389;41.932;25.904;2022-08-21T11:43:59;8.07;;;6.18;;
8704;SDS011;4389;41.932;25.904;2022-08-21T11:46:36;9.05;;;6.30;;
8704;SDS011;4389;41.932;25.904;2022-08-21T11:52:02;14.30;;;8.68;;
8704;SDS011;4389;41.932;25.904;2022-08-21T11:54:39;7.90;;;6.88;;
8704;SDS011;4389;41.932;25.904;2022-08-21T11:57:13;12.25;;;7.43;;
8704;SDS011;4389;41.932;25.904;2022-08-21T11:59:45;10.75;;;7.53;;
8704;SDS011;4389;41.932;25.904;2022-08-21T12:02:18;12.45;;;7.40;;
8704;SDS011;4389;41.932;25.904;2022-08-21T12:04:51;11.48;;;7.35;;
8704;SDS011;4389;41.932;25.904;2022-08-21T12:07:29;10.90;;;6.57;;
8704;SDS011;4389;41.932;25.904;2022-08-21T12:10:04;6.57;;;5.90;;
8704;SDS011;4389;41.932;25.904;2022-08-21T12:12:34;8.82;;;6.43;;
8704;SDS011;4389;41.932;25.904;2022-08-21T12:17:53;10.70;;;6.68;;
8704;SDS011;4389;41.932;25.904;2022-08-21T12:20:32;10.40;;;6.97;;
8704;SDS011;4389;41.932;25.904;2022-08-21T12:23:03;8.70;;;6.70;;
8704;SDS011;4389;41.932;25.904;2022-08-21T12:25:37;9.98;;;6.80;;
8704;SDS011;4389;41.932;25.904;2022-08-21T12:28:07;10.00;;;7.07;;
8704;SDS011;4389;41.932;25.904;2022-08-21T12:30:36;7.85;;;6.45;;
8704;SDS011;4389;41.932;25.904;2022-08-21T12:33:05;8.65;;;6.68;;
8704;SDS011;4389;41.932;25.904;2022-08-21T12:35:46;13.18;;;6.63;;
8704;SDS011;4389;41.932;25.904;2022-08-21T12:38:16;8.18;;;6.82;;
8704;SDS011;4389;41.932;25.904;2022-08-21T12:40:48;10.10;;;7.03;;
8704;SDS011;4389;41.932;25.904;2022-08-21T12:43:21;9.43;;;7.18;;
8704;SDS011;4389;41.932;25.904;2022-08-21T12:45:55;12.93;;;7.40;;
8704;SDS011;4389;41.932;25.904;2022-08-21T12:48:26;8.50;;;6.80;;
8704;SDS011;4389;41.932;25.904;2022-08-21T12:51:05;13.30;;;6.55;;
8704;SDS011;4389;41.932;25.904;2022-08-21T12:53:40;8.25;;;6.57;;
8704;SDS011;4389;41.932;25.904;2022-08-21T12:56:14;15.57;;;7.43;;
8704;SDS011;4389;41.932;25.904;2022-08-21T12:58:46;7.50;;;6.65;;
8704;SDS011;4389;41.932;25.904;2022-08-21T13:01:17;8.93;;;6.78;;
8704;SDS011;4389;41.932;25.904;2022-08-21T13:03:50;10.73;;;6.85;;
8704;SDS011;4389;41.932;25.904;2022-08-21T13:06:19;11.38;;;7.28;;
8704;SDS011;4389;41.932;25.904;2022-08-21T13:08:47;9.65;;;7.03;;
8704;SDS011;4389;41.932;25.904;2022-08-21T13:11:22;10.98;;;7.38;;
8704;SDS011;4389;41.932;25.904;2022-08-21T13:13:50;10.18;;;7.10;;
8704;SDS011;4389;41.932;25.904;2022-08-21T13:16:22;9.23;;;7.00;;
8704;SDS011;4389;41.932;25.904;2022-08-21T13:18:54;7.68;;;6.78;;
8704;SDS011;4389;41.932;25.904;2022-08-21T13:21:26;8.85;;;7.25;;
8704;SDS011;4389;41.932;25.904;2022-08-21T13:24:06;11.77;;;7.97;;
8704;SDS011;4389;41.932;25.904;2022-08-21T13:26:38;11.27;;;8.35;;
8704;SDS011;4389;41.932;25.904;2022-08-21T13:29:06;17.50;;;7.90;;
8704;SDS011;4389;41.932;25.904;2022-08-21T13:31:36;10.23;;;7.45;;
8704;SDS011;4389;41.932;25.904;2022-08-21T13:34:05;10.07;;;7.90;;
8704;SDS011;4389;41.932;25.904;2022-08-21T13:36:34;14.40;;;8.07;;
8704;SDS011;4389;41.932;25.904;2022-08-21T13:39:03;10.00;;;7.55;;
8704;SDS011;4389;41.932;25.904;2022-08-21T13:41:32;9.70;;;8.40;;
8704;SDS011;4389;41.932;25.904;2022-08-21T13:44:04;11.55;;;8.00;;
8704;SDS011;4389;41.932;25.904;2022-08-21T13:46:40;8.70;;;7.68;;
8704;SDS011;4389;41.932;25.904;2022-08-21T13:49:08;9.57;;;8.60;;
8704;SDS011;4389;41.932;25.904;2022-08-21T13:51:36;9.63;;;7.80;;
8704;SDS011;4389;41.932;25.904;2022-08-21T13:54:13;10.20;;;8.18;;
8704;SDS011;4389;41.932;25.904;2022-08-21T13:56:42;9.00;;;8.10;;
8704;SDS011;4389;41.932;25.904;2022-08-21T13:59:12;11.40;;;7.50;;
8704;SDS011;4389;41.932;25.904;2022-08-21T14:01:51;16.05;;;8.68;;
8704;SDS011;4389;41.932;25.904;2022-08-21T14:04:25;9.70;;;7.80;;
8704;SDS011;4389;41.932;25.904;2022-08-21T14:06:57;12.02;;;8.52;;
8704;SDS011;4389;41.932;25.904;2022-08-21T14:09:26;9.27;;;8.35;;
8704;SDS011;4389;41.932;25.904;2022-08-21T14:11:56;8.98;;;7.80;;
8704;SDS011;4389;41.932;25.904;2022-08-21T14:14:28;12.77;;;7.93;;
8704;SDS011;4389;41.932;25.904;2022-08-21T14:16:58;12.70;;;7.88;;
8704;SDS011;4389;41.932;25.904;2022-08-21T14:19:27;9.50;;;7.68;;
8704;SDS011;4389;41.932;25.904;2022-08-21T14:22:12;9.23;;;8.18;;
8704;SDS011;4389;41.932;25.904;2022-08-21T14:24:49;10.38;;;7.55;;
8704;SDS011;4389;41.932;25.904;2022-08-21T14:27:16;18.98;;;10.45;;
8704;SDS011;4389;41.932;25.904;2022-08-21T14:29:45;12.40;;;10.57;;
8704;SDS011;4389;41.932;25.904;2022-08-21T14:32:13;13.40;;;9.65;;
8704;SDS011;4389;41.932;25.904;2022-08-21T14:34:45;14.73;;;11.10;;
8704;SDS011;4389;41.932;25.904;2022-08-21T14:37:12;12.68;;;11.07;;
8704;SDS011;4389;41.932;25.904;2022-08-21T14:39:39;14.23;;;10.75;;
8704;SDS011;4389;41.932;25.904;2022-08-21T14:42:06;12.35;;;10.40;;
8704;SDS011;4389;41.932;25.904;2022-08-21T14:44:33;17.17;;;10.57;;
8704;SDS011;4389;41.932;25.904;2022-08-21T14:47:01;13.18;;;10.82;;
8704;SDS011;4389;41.932;25.904;2022-08-21T14:49:29;11.75;;;10.38;;
8704;SDS011;4389;41.932;25.904;2022-08-21T14:51:55;12.23;;;10.65;;
8704;SDS011;4389;41.932;25.904;2022-08-21T14:54:23;13.48;;;10.82;;
8704;SDS011;4389;41.932;25.904;2022-08-21T14:56:50;13.65;;;11.15;;
8704;SDS011;4389;41.932;25.904;2022-08-21T14:59:17;15.95;;;10.48;;
8704;SDS011;4389;41.932;25.904;2022-08-21T15:01:45;13.65;;;11.15;;
8704;SDS011;4389;41.932;25.904;2022-08-21T15:04:13;12.68;;;10.70;;
8704;SDS011;4389;41.932;25.904;2022-08-21T15:06:40;12.45;;;11.15;;
8704;SDS011;4389;41.932;25.904;2022-08-21T15:09:06;11.48;;;10.25;;
8704;SDS011;4389;41.932;25.904;2022-08-21T15:11:33;13.45;;;11.43;;
8704;SDS011;4389;41.932;25.904;2022-08-21T15:14:03;15.32;;;10.45;;
8704;SDS011;4389;41.932;25.904;2022-08-21T15:16:33;17.27;;;11.30;;
8704;SDS011;4389;41.932;25.904;2022-08-21T15:19:01;14.73;;;10.93;;